createdAt,value
2023-01-12T00:02:13.273Z,95919.97
2023-01-12T00:04:41.455Z,95937.06
2023-01-12T00:07:11.981Z,95931.53
2023-01-12T00:09:39.749Z,95935.28
2023-01-12T00:12:10.638Z,95913.56
2023-01-12T00:14:39.074Z,95902.72
2023-01-12T00:17:08.975Z,95912.31
2023-01-12T00:19:38.837Z,95910.59
2023-01-12T00:22:11.645Z,95907.13
2023-01-12T00:24:45.932Z,95909.41
2023-01-12T00:27:15.540Z,95913.63
2023-01-12T00:29:43.586Z,95905.63
2023-01-12T00:32:14.227Z,95899.91
2023-01-12T00:34:42.349Z,95902.13
2023-01-12T00:37:11.096Z,95896.75
2023-01-12T00:39:42.942Z,95898.31
2023-01-12T00:42:32.034Z,95905.28
2023-01-12T00:45:28.788Z,95901.81
2023-01-12T00:47:59.369Z,95906.03
2023-01-12T00:50:27.078Z,95896.69
2023-01-12T00:52:54.749Z,95898.31
2023-01-12T00:55:22.480Z,95892.81
2023-01-12T00:57:51.563Z,95896.78
2023-01-12T01:00:19.823Z,95898.31
2023-01-12T01:02:51.450Z,95904.03
2023-01-12T01:05:19.156Z,95903.81
2023-01-12T01:07:47.243Z,95919.59
2023-01-12T01:10:15.993Z,95925.19
2023-01-12T01:12:43.924Z,95920.06
2023-01-12T01:15:13.252Z,95927.28
2023-01-12T01:17:40.896Z,95921.84
2023-01-12T01:20:12.440Z,95914.47
2023-01-12T01:22:40.121Z,95907.69
2023-01-12T01:25:08.368Z,95903.84
2023-01-12T01:27:36.050Z,95907.16
2023-01-12T01:30:03.838Z,95911.94
2023-01-12T01:32:32.862Z,95913.19
2023-01-12T01:35:00.494Z,95921.47
2023-01-12T01:37:29.458Z,95915.66
2023-01-12T01:39:57.086Z,95912.25
2023-01-12T01:42:28.922Z,95919.84
2023-01-12T01:44:59.227Z,95916.56
2023-01-12T01:47:35.395Z,95918.56
2023-01-12T01:50:07.907Z,95913.69
2023-01-12T01:52:40.893Z,95911.47
2023-01-12T01:55:12.197Z,95923.03
2023-01-12T01:57:44.531Z,95906.09
2023-01-12T02:00:13.947Z,95905.16
2023-01-12T02:02:45.175Z,95906.31
2023-01-12T02:05:15.056Z,95910.06
2023-01-12T02:07:45.729Z,95907.03
2023-01-12T02:10:13.452Z,95906.69
2023-01-12T02:12:58.879Z,95909.28
2023-01-12T02:15:46.628Z,95905.75
2023-01-12T02:18:25.102Z,95893.38
2023-01-12T02:21:06.520Z,95887.66
2023-01-12T02:24:19.820Z,95879.72
2023-01-12T02:27:17.740Z,95879.72
2023-01-12T02:30:14.689Z,95877.50
2023-01-12T02:32:51.996Z,95876.00
2023-01-12T02:35:26.106Z,95880.78
2023-01-12T02:38:01.965Z,95882.28
2023-01-12T02:40:37.828Z,95879.84
2023-01-12T02:43:12.016Z,95879.97
2023-01-12T02:45:47.831Z,95879.03
2023-01-12T02:48:23.935Z,95875.28
2023-01-12T02:50:56.839Z,95883.56
2023-01-12T02:53:31.178Z,95888.38
2023-01-12T02:56:04.111Z,95885.34
2023-01-12T02:58:36.574Z,95879.03
2023-01-12T03:01:05.535Z,95879.03
2023-01-12T03:03:35.149Z,95869.34
2023-01-12T03:06:03.030Z,95863.97
2023-01-12T03:08:32.762Z,95864.22
2023-01-12T03:11:12.916Z,95869.34
2023-01-12T03:13:45.383Z,95862.81
2023-01-12T03:16:19.132Z,95868.31
2023-01-12T03:18:55.284Z,95868.75
2023-01-12T03:21:29.484Z,95863.16
2023-01-12T03:24:03.827Z,95856.13
2023-01-12T03:26:44.854Z,95860.09
2023-01-12T03:29:18.303Z,95860.00
2023-01-12T03:31:49.323Z,95857.19
2023-01-12T03:34:21.852Z,95857.78
2023-01-12T03:36:59.463Z,95858.81
2023-01-12T03:39:34.412Z,95861.38
2023-01-12T03:42:15.419Z,95868.06
2023-01-12T03:44:51.915Z,95859.19
2023-01-12T03:47:23.862Z,95864.81
2023-01-12T03:49:56.929Z,95862.22
2023-01-12T03:52:26.807Z,95863.97
2023-01-12T03:54:57.384Z,95858.81
2023-01-12T03:57:26.447Z,95865.16
2023-01-12T03:59:54.955Z,95858.63
2023-01-12T04:02:24.966Z,95854.88
2023-01-12T04:04:54.027Z,95851.13
2023-01-12T04:07:23.072Z,95854.63
2023-01-12T04:09:53.393Z,95843.78
2023-01-12T04:12:23.681Z,95838.41
2023-01-12T04:14:51.359Z,95852.75
2023-01-12T04:17:19.120Z,95844.25
2023-01-12T04:19:46.780Z,95846.94
2023-01-12T04:22:34.266Z,95844.47
2023-01-12T04:25:01.912Z,95842.16
2023-01-12T04:27:29.848Z,95842.38
2023-01-12T04:29:57.687Z,95844.94
2023-01-12T04:32:25.335Z,95839.34
2023-01-12T04:34:53.046Z,95838.75
2023-01-12T04:37:24.604Z,95828.97
2023-01-12T04:39:52.283Z,95833.63
2023-01-12T04:42:37.363Z,95824.31
2023-01-12T04:45:05.769Z,95827.94
2023-01-12T04:47:34.823Z,95818.34
2023-01-12T04:50:02.516Z,95817.78
2023-01-12T04:52:31.599Z,95821.63
2023-01-12T04:54:59.290Z,95817.53
2023-01-12T04:57:26.916Z,95827.81
2023-01-12T04:59:54.603Z,95815.56
2023-01-12T05:02:22.457Z,95827.34
2023-01-12T05:04:50.760Z,95818.00
2023-01-12T05:07:18.569Z,95818.00
2023-01-12T05:10:04.905Z,95826.78
2023-01-12T05:12:32.578Z,95832.97
2023-01-12T05:15:00.270Z,95818.47
2023-01-12T05:17:28.518Z,95812.31
2023-01-12T05:19:56.301Z,95816.13
2023-01-12T05:22:23.992Z,95813.22
2023-01-12T05:24:53.479Z,95815.31
2023-01-12T05:27:21.248Z,95806.34
2023-01-12T05:29:49.382Z,95809.88
2023-01-12T05:32:18.705Z,95803.66
2023-01-12T05:34:46.424Z,95799.34
2023-01-12T05:37:14.100Z,95810.78
2023-01-12T05:39:41.724Z,95812.06
2023-01-12T05:42:28.471Z,95806.22
2023-01-12T05:44:56.151Z,95804.13
2023-01-12T05:47:23.808Z,95820.47
2023-01-12T05:49:51.569Z,95809.50
2023-01-12T05:52:19.222Z,95808.56
2023-01-12T05:54:46.899Z,95809.03
2023-01-12T05:57:15.922Z,95804.13
2023-01-12T05:59:43.557Z,95805.75
2023-01-12T06:02:13.775Z,95802.84
2023-01-12T06:04:41.452Z,95793.63
2023-01-12T06:07:11.199Z,95797.81
2023-01-12T06:09:38.855Z,95797.91
2023-01-12T06:12:24.612Z,95788.06
2023-01-12T06:14:53.654Z,95793.44
2023-01-12T06:17:21.330Z,95785.16
2023-01-12T06:19:49.020Z,95781.84
2023-01-12T06:22:16.707Z,95790.44
2023-01-12T06:24:47.969Z,95787.75
2023-01-12T06:27:15.992Z,95794.53
2023-01-12T06:29:43.782Z,95782.34
2023-01-12T06:32:12.770Z,95799.75
2023-01-12T06:34:40.410Z,95798.72
2023-01-12T06:37:08.571Z,95799.06
2023-01-12T06:39:36.210Z,95789.53
2023-01-12T06:42:24.772Z,95782.63
2023-01-12T06:44:52.470Z,95782.00
2023-01-12T06:47:22.067Z,95785.75
2023-01-12T06:49:51.593Z,95777.16
2023-01-12T06:52:21.538Z,95780.81
2023-01-12T06:54:52.031Z,95781.31
2023-01-12T06:57:19.985Z,95787.16
2023-01-12T06:59:47.726Z,95789.63
2023-01-12T07:02:17.674Z,95790.88
2023-01-12T07:04:46.822Z,95793.94
2023-01-12T07:07:14.613Z,95785.63
2023-01-12T07:09:42.358Z,95790.84
2023-01-12T07:12:10.193Z,95797.88
2023-01-12T07:14:37.936Z,95792.78
2023-01-12T07:17:05.599Z,95791.41
2023-01-12T07:19:33.490Z,95788.06
2023-01-12T07:22:02.545Z,95783.81
2023-01-12T07:24:30.429Z,95780.22
2023-01-12T07:26:59.312Z,95784.53
2023-01-12T07:29:27.062Z,95789.44
2023-01-12T07:31:54.867Z,95786.41
2023-01-12T07:34:22.789Z,95780.78
2023-01-12T07:36:50.733Z,95777.94
2023-01-12T07:39:19.961Z,95775.78
2023-01-12T07:42:04.920Z,95774.91
2023-01-12T07:44:32.683Z,95775.41
2023-01-12T07:47:00.528Z,95777.59
2023-01-12T07:49:28.426Z,95787.13
2023-01-12T07:51:56.294Z,95781.69
2023-01-12T07:54:25.400Z,95774.06
2023-01-12T07:56:53.122Z,95768.44
2023-01-12T07:59:20.800Z,95772.50
2023-01-12T08:01:48.676Z,95762.09
2023-01-12T08:04:16.669Z,95763.75
2023-01-12T08:06:44.352Z,95767.31
2023-01-12T08:09:12.079Z,95749.31
2023-01-12T08:11:41.541Z,95754.22
2023-01-12T08:14:09.375Z,95750.22
2023-01-12T08:16:40.897Z,95746.03
2023-01-12T08:19:12.799Z,95744.50
2023-01-12T08:21:45.964Z,95729.25
2023-01-12T08:24:17.024Z,95729.63
2023-01-12T08:26:49.441Z,95736.50
2023-01-12T08:29:20.800Z,95729.59
2023-01-12T08:31:48.796Z,95727.34
2023-01-12T08:34:16.549Z,95712.91
2023-01-12T08:36:44.767Z,95729.69
2023-01-12T08:39:12.679Z,95725.41
2023-01-12T08:41:42.266Z,95727.34
2023-01-12T08:44:12.318Z,95731.72
2023-01-12T08:46:46.944Z,95727.19
2023-01-12T08:49:16.839Z,95728.88
2023-01-12T08:51:45.558Z,95728.09
2023-01-12T08:54:19.480Z,95732.69
2023-01-12T08:56:47.440Z,95730.28
2023-01-12T08:59:19.148Z,95730.03
2023-01-12T09:01:47.311Z,95725.44
2023-01-12T09:04:15.073Z,95729.53
2023-01-12T09:06:45.001Z,95724.94
2023-01-12T09:09:14.660Z,95718.47
2023-01-12T09:11:43.728Z,95710.13
2023-01-12T09:14:13.280Z,95705.53
2023-01-12T09:16:42.782Z,95703.66
2023-01-12T09:19:11.750Z,95712.88
2023-01-12T09:21:41.889Z,95718.34
2023-01-12T09:24:10.495Z,95720.28
2023-01-12T09:26:39.958Z,95728.38
2023-01-12T09:29:08.050Z,95724.88
2023-01-12T09:31:37.712Z,95724.09
2023-01-12T09:34:07.134Z,95722.75
2023-01-12T09:36:36.655Z,95724.97
2023-01-12T09:39:06.158Z,95734.13
2023-01-12T09:41:55.584Z,95716.59
2023-01-12T09:44:44.420Z,95717.91
2023-01-12T09:47:20.448Z,95719.28
2023-01-12T09:50:01.337Z,95717.63
2023-01-12T09:52:39.481Z,95725.16
2023-01-12T09:55:14.232Z,95724.59
2023-01-12T09:58:05.604Z,95730.00
2023-01-12T10:00:33.487Z,95731.38
2023-01-12T10:03:13.080Z,95727.78
2023-01-12T10:05:47.229Z,95722.66
2023-01-12T10:08:19.627Z,95725.16
2023-01-12T10:11:01.117Z,95718.44
2023-01-12T10:13:43.211Z,95708.97
2023-01-12T10:16:18.511Z,95704.09
2023-01-12T10:18:49.903Z,95699.28
2023-01-12T10:21:18.969Z,95687.06
2023-01-12T10:23:46.990Z,95680.06
2023-01-12T10:26:22.989Z,95677.91
2023-01-12T10:28:53.368Z,95682.81
2023-01-12T10:31:23.907Z,95682.31
2023-01-12T10:34:06.921Z,95694.25
2023-01-12T10:36:37.963Z,95687.75
2023-01-12T10:39:07.358Z,95677.78
2023-01-12T10:41:37.753Z,95661.22
2023-01-12T10:44:14.083Z,95663.94
2023-01-12T10:46:41.857Z,95661.22
2023-01-12T10:49:20.837Z,95655.78
2023-01-12T10:51:57.813Z,95663.91
2023-01-12T10:54:27.674Z,95650.06
2023-01-12T10:56:59.813Z,95628.66
2023-01-12T10:59:32.412Z,95639.47
2023-01-12T11:02:16.864Z,95633.47
2023-01-12T11:04:48.974Z,95641.06
2023-01-12T11:07:21.805Z,95641.59
2023-01-12T11:09:52.299Z,95637.00
2023-01-12T11:12:24.823Z,95621.06
2023-01-12T11:15:04.666Z,95637.88
2023-01-12T11:17:57.500Z,95630.56
2023-01-12T11:20:31.585Z,95638.69
2023-01-12T11:23:04.125Z,95634.06
2023-01-12T11:25:37.183Z,95624.31
2023-01-12T11:28:11.692Z,95626.97
2023-01-12T11:30:45.982Z,95627.50
2023-01-12T11:33:18.180Z,95632.09
2023-01-12T11:35:50.040Z,95614.75
2023-01-12T11:38:24.038Z,95613.41
2023-01-12T11:40:53.437Z,95612.31
2023-01-12T11:43:48.515Z,95610.69
2023-01-12T11:46:24.747Z,95610.63
2023-01-12T11:49:00.718Z,95593.84
2023-01-12T11:51:28.836Z,95609.88
2023-01-12T11:53:58.241Z,95612.81
2023-01-12T11:56:47.671Z,95607.66
2023-01-12T11:59:23.659Z,95588.19
2023-01-12T12:02:00.741Z,95585.16
2023-01-12T12:04:44.184Z,95585.41
2023-01-12T12:07:31.539Z,95593.78
2023-01-12T12:10:18.487Z,95591.06
2023-01-12T12:13:07.586Z,95587.56
2023-01-12T12:15:47.058Z,95578.91
2023-01-12T12:18:26.503Z,95576.47
2023-01-12T12:21:05.001Z,95562.16
2023-01-12T12:23:41.632Z,95584.13
2023-01-12T12:26:21.183Z,95574.94
2023-01-12T12:29:11.795Z,95567.81
2023-01-12T12:31:58.476Z,95565.69
2023-01-12T12:35:02.338Z,95567.31
2023-01-12T12:37:40.696Z,95578.38
2023-01-12T12:40:18.838Z,95565.69
2023-01-12T12:43:19.580Z,95555.69
2023-01-12T12:45:54.427Z,95548.97
2023-01-12T12:48:28.643Z,95547.81
2023-01-12T12:51:03.930Z,95559.78
2023-01-12T12:53:35.584Z,95544.59
2023-01-12T12:56:06.465Z,95553.78
2023-01-12T12:58:45.182Z,95554.84
2023-01-12T13:01:55.140Z,95558.41
2023-01-12T13:04:57.644Z,95555.22
2023-01-12T13:07:26.980Z,95535.63
2023-01-12T13:10:10.846Z,95548.66
2023-01-12T13:12:38.660Z,95541.84
2023-01-12T13:15:20.181Z,95555.69
2023-01-12T13:17:49.996Z,95548.38
2023-01-12T13:21:02.506Z,95551.63
2023-01-12T13:23:47.710Z,95566.59
2023-01-12T13:26:45.828Z,95559.31
2023-01-12T13:29:50.294Z,95545.75
2023-01-12T13:32:43.898Z,95552.50
2023-01-12T13:35:30.393Z,95552.50
2023-01-12T13:38:05.528Z,95557.34
2023-01-12T13:40:33.771Z,95554.34
2023-01-12T13:43:15.399Z,95550.00
2023-01-12T13:45:50.538Z,95534.63
2023-01-12T13:48:21.743Z,95527.31
2023-01-12T13:50:52.609Z,95534.91
2023-01-12T13:53:28.358Z,95526.31
2023-01-12T13:55:58.831Z,95527.66
2023-01-12T13:58:27.315Z,95533.09
2023-01-12T14:00:58.553Z,95541.00
2023-01-12T14:03:58.754Z,95542.09
2023-01-12T14:06:36.433Z,95543.72
2023-01-12T14:09:16.299Z,95539.66
2023-01-12T14:12:15.997Z,95543.72
2023-01-12T14:15:20.289Z,95536.88
2023-01-12T14:17:53.156Z,95536.09
2023-01-12T14:20:24.521Z,95538.69
2023-01-12T14:23:14.220Z,95544.06
2023-01-12T14:25:42.853Z,95535.28
2023-01-12T14:28:17.950Z,95543.28
2023-01-12T14:30:49.160Z,95530.63
2023-01-12T14:33:20.684Z,95531.81
2023-01-12T14:35:54.617Z,95544.25
2023-01-12T14:38:25.314Z,95534.84
2023-01-12T14:41:00.121Z,95534.84
2023-01-12T14:43:49.006Z,95544.31
2023-01-12T14:46:27.926Z,95536.19
2023-01-12T14:48:57.932Z,95530.50
2023-01-12T14:51:30.038Z,95534.84
2023-01-12T14:54:01.947Z,95538.34
2023-01-12T14:56:38.757Z,95539.16
2023-01-12T14:59:14.857Z,95545.13
2023-01-12T15:01:43.742Z,95552.44
2023-01-12T15:04:17.712Z,95556.78
2023-01-12T15:06:47.744Z,95546.78
2023-01-12T15:09:28.273Z,95539.47
2023-01-12T15:11:56.543Z,95538.09
2023-01-12T15:14:27.174Z,95532.97
2023-01-12T15:17:17.780Z,95517.84
2023-01-12T15:20:03.246Z,95528.66
2023-01-12T15:22:50.005Z,95537.06
2023-01-12T15:25:32.838Z,95525.69
2023-01-12T15:28:00.661Z,95529.47
2023-01-12T15:30:28.652Z,95533.81
2023-01-12T15:32:56.665Z,95524.06
2023-01-12T15:35:26.854Z,95527.59
2023-01-12T15:37:58.130Z,95534.06
2023-01-12T15:40:27.657Z,95527.34
2023-01-12T15:42:55.682Z,95532.72
2023-01-12T15:45:34.537Z,95532.72
2023-01-12T15:48:02.729Z,95539.47
2023-01-12T15:50:30.705Z,95532.19
2023-01-12T15:53:00.432Z,95542.47
2023-01-12T15:55:31.222Z,95532.72
2023-01-12T15:57:59.118Z,95538.97
2023-01-12T16:00:27.009Z,95544.34
2023-01-12T16:02:54.936Z,95538.97
2023-01-12T16:05:26.298Z,95524.34
2023-01-12T16:07:54.301Z,95519.47
2023-01-12T16:10:23.741Z,95526.22
2023-01-12T16:12:51.776Z,95540.28
2023-01-12T16:15:21.577Z,95536.50
2023-01-12T16:17:49.996Z,95527.03
2023-01-12T16:20:19.425Z,95528.13
2023-01-12T16:22:47.670Z,95531.34
2023-01-12T16:25:16.682Z,95532.19
2023-01-12T16:27:45.851Z,95530.31
2023-01-12T16:30:16.286Z,95519.22
2023-01-12T16:32:46.452Z,95510.81
2023-01-12T16:35:15.439Z,95519.75
2023-01-12T16:37:43.440Z,95517.03
2023-01-12T16:40:12.782Z,95520.81
2023-01-12T16:42:40.502Z,95522.44
2023-01-12T16:45:10.774Z,95511.91
2023-01-12T16:47:38.689Z,95510.03
2023-01-12T16:50:07.277Z,95511.91
2023-01-12T16:52:35.293Z,95525.44
2023-01-12T16:55:04.868Z,95524.34
2023-01-12T16:57:33.608Z,95523.00
2023-01-12T17:00:01.416Z,95518.13
2023-01-12T17:02:31.440Z,95508.13
2023-01-12T17:04:59.724Z,95511.63
2023-01-12T17:07:29.294Z,95509.22
2023-01-12T17:09:58.819Z,95492.19
2023-01-12T17:12:26.662Z,95500.28
2023-01-12T17:14:54.608Z,95494.59
2023-01-12T17:17:22.792Z,95489.72
2023-01-12T17:19:52.159Z,95497.56
2023-01-12T17:22:20.359Z,95500.00
2023-01-12T17:24:48.275Z,95493.25
2023-01-12T17:27:16.067Z,95492.19
2023-01-12T17:29:43.909Z,95495.16
2023-01-12T17:32:11.835Z,95500.56
2023-01-12T17:34:41.642Z,95497.03
2023-01-12T17:37:11.199Z,95493.25
2023-01-12T17:39:41.423Z,95484.06
2023-01-12T17:42:28.959Z,95487.84
2023-01-12T17:44:56.644Z,95494.63
2023-01-12T17:47:25.287Z,95492.19
2023-01-12T17:49:54.670Z,95489.19
2023-01-12T17:52:24.249Z,95494.34
2023-01-12T17:54:52.097Z,95492.44
2023-01-12T17:57:19.945Z,95480.56
2023-01-12T17:59:49.883Z,95481.38
2023-01-12T18:02:18.197Z,95497.03
2023-01-12T18:04:47.238Z,95481.63
2023-01-12T18:07:14.965Z,95484.06
2023-01-12T18:09:44.040Z,95479.47
2023-01-12T18:12:12.367Z,95484.06
2023-01-12T18:14:40.342Z,95479.47
2023-01-12T18:17:09.212Z,95483.81
2023-01-12T18:19:37.111Z,95487.31
2023-01-12T18:22:06.940Z,95476.50
2023-01-12T18:24:35.201Z,95471.34
2023-01-12T18:27:04.539Z,95469.19
2023-01-12T18:29:32.463Z,95467.81
2023-01-12T18:32:00.125Z,95470.28
2023-01-12T18:34:30.903Z,95468.94
2023-01-12T18:36:58.652Z,95471.66
2023-01-12T18:39:26.363Z,95457.84
2023-01-12T18:42:11.639Z,95465.69
2023-01-12T18:44:40.871Z,95458.66
2023-01-12T18:47:32.041Z,95460.25
2023-01-12T18:50:19.732Z,95455.66
2023-01-12T18:53:04.731Z,95445.69
2023-01-12T18:55:33.691Z,95446.22
2023-01-12T18:58:01.463Z,95443.81
2023-01-12T19:00:30.580Z,95442.72
2023-01-12T19:02:59.558Z,95440.00
2023-01-12T19:05:34.893Z,95440.81
2023-01-12T19:08:26.082Z,95435.16
2023-01-12T19:10:53.860Z,95435.66
2023-01-12T19:13:39.112Z,95437.56
2023-01-12T19:16:32.310Z,95432.72
2023-01-12T19:19:00.071Z,95424.34
2023-01-12T19:21:45.158Z,95426.50
2023-01-12T19:24:30.567Z,95425.41
2023-01-12T19:27:15.936Z,95424.59
2023-01-12T19:29:44.931Z,95427.06
2023-01-12T19:32:14.189Z,95420.81
2023-01-12T19:34:44.701Z,95415.44
2023-01-12T19:37:13.531Z,95416.78
2023-01-12T19:40:00.569Z,95411.38
2023-01-12T19:42:47.058Z,95418.09
2023-01-12T19:45:14.709Z,95422.16
2023-01-12T19:47:44.031Z,95418.66
2023-01-12T19:50:16.586Z,95422.91
2023-01-12T19:52:44.474Z,95416.97
2023-01-12T19:55:14.810Z,95424.53
2023-01-12T19:57:43.495Z,95414.56
2023-01-12T20:00:15.169Z,95415.09
2023-01-12T20:02:44.987Z,95406.72
2023-01-12T20:05:17.169Z,95406.72
2023-01-12T20:07:44.893Z,95407.00
2023-01-12T20:10:12.581Z,95401.28
2023-01-12T20:12:40.289Z,95402.09
2023-01-12T20:15:09.106Z,95402.88
2023-01-12T20:17:37.106Z,95398.31
2023-01-12T20:20:08.500Z,95401.28
2023-01-12T20:22:36.572Z,95403.09
2023-01-12T20:25:05.224Z,95403.41
2023-01-12T20:27:33.738Z,95403.13
2023-01-12T20:30:02.001Z,95403.06
2023-01-12T20:32:31.545Z,95396.84
2023-01-12T20:34:59.829Z,95399.75
2023-01-12T20:37:29.012Z,95409.34
2023-01-12T20:39:57.986Z,95403.84
2023-01-12T20:42:26.197Z,95405.91
2023-01-12T20:44:53.884Z,95406.03
2023-01-12T20:47:21.743Z,95410.88
2023-01-12T20:49:49.570Z,95415.19
2023-01-12T20:52:17.271Z,95408.53
2023-01-12T20:54:46.331Z,95410.81
2023-01-12T20:57:14.075Z,95407.63
2023-01-12T20:59:41.848Z,95391.91
2023-01-12T21:02:09.934Z,95388.56
2023-01-12T21:04:37.584Z,95382.06
2023-01-12T21:07:05.311Z,95388.97
2023-01-12T21:09:33.194Z,95386.44
2023-01-12T21:12:02.228Z,95389.91
2023-01-12T21:14:30.050Z,95398.38
2023-01-12T21:16:57.748Z,95409.03
2023-01-12T21:19:25.457Z,95410.66
2023-01-12T21:21:53.187Z,95408.38
2023-01-12T21:24:23.541Z,95414.88
2023-01-12T21:26:51.266Z,95414.69
2023-01-12T21:29:20.376Z,95411.59
2023-01-12T21:31:48.189Z,95411.88
2023-01-12T21:34:16.467Z,95410.53
2023-01-12T21:36:44.232Z,95417.81
2023-01-12T21:39:11.946Z,95412.50
2023-01-12T21:41:53.521Z,95415.53
2023-01-12T21:44:22.519Z,95413.31
2023-01-12T21:46:50.250Z,95414.38
2023-01-12T21:49:17.937Z,95413.31
2023-01-12T21:51:45.690Z,95409.00
2023-01-12T21:54:13.386Z,95409.56
2023-01-12T21:56:41.047Z,95405.25
2023-01-12T21:59:08.751Z,95410.97
2023-01-12T22:01:41.037Z,95410.47
2023-01-12T22:04:08.805Z,95403.47
2023-01-12T22:06:36.532Z,95396.22
2023-01-12T22:09:06.078Z,95385.78
2023-01-12T22:11:33.812Z,95384.97
2023-01-12T22:14:01.486Z,95397.31
2023-01-12T22:16:29.186Z,95392.72
2023-01-12T22:18:58.300Z,95402.91
2023-01-12T22:21:26.253Z,95406.09
2023-01-12T22:23:54.234Z,95404.69
2023-01-12T22:26:22.039Z,95407.63
2023-01-12T22:28:50.125Z,95401.59
2023-01-12T22:31:19.177Z,95396.94
2023-01-12T22:33:47.615Z,95405.75
2023-01-12T22:36:16.665Z,95390.72
2023-01-12T22:38:44.366Z,95388.78
2023-01-12T22:41:14.642Z,95388.13
2023-01-12T22:43:42.477Z,95385.38
2023-01-12T22:46:14.342Z,95377.59
2023-01-12T22:48:42.023Z,95383.69
2023-01-12T22:51:10.292Z,95384.75
2023-01-12T22:53:39.333Z,95385.47
2023-01-12T23:02:24.990Z,95383.00
2023-01-12T23:04:52.708Z,95371.63
2023-01-12T23:07:20.352Z,95371.50
2023-01-12T23:09:48.156Z,95370.28
2023-01-12T23:12:15.804Z,95366.88
2023-01-12T23:14:46.566Z,95358.50
2023-01-12T23:17:15.558Z,95348.00
2023-01-12T23:19:44.808Z,95346.25
2023-01-12T23:22:12.500Z,95347.25
2023-01-12T23:24:40.164Z,95352.00
2023-01-12T23:27:07.825Z,95352.13
2023-01-12T23:29:38.460Z,95345.44
2023-01-12T23:32:06.489Z,95340.59
2023-01-12T23:34:35.535Z,95335.47
2023-01-12T23:37:06.185Z,95344.66
2023-01-12T23:39:34.093Z,95330.88
2023-01-12T23:42:01.718Z,95319.81
2023-01-12T23:44:29.549Z,95330.34
2023-01-12T23:46:57.190Z,95325.22
2023-01-12T23:49:24.835Z,95327.66
2023-01-12T23:51:53.877Z,95323.59
2023-01-12T23:54:21.547Z,95323.31
2023-01-12T23:56:51.774Z,95295.47
2023-01-12T23:59:19.416Z,95293.00
